You are not logged in, Click here to log in
特裡布萬國際機場 KTM / VNKT 尼泊爾首都加德滿都的國際機場
ICAO: VNKT Country: 尼泊爾首都加德滿都的國際機場
Latitude: 27.6981 Longitude: 85.3592
Total Arrivals: 9 Total Departures: 10
Latest Arrival: KB400 (VQPR-VNKT)Arthur. Kung Latest Departure: TV9900 (VNKT-ZUUU)Arthur. Kung
Scenery:
METAR : VNKT 131120Z 10008KT 7000 -RA FEW008 SCT030 BKN090 10/08 Q1022 NOSIG

特裡布萬國際機場 KTM

You are accessing this site from IP address 100.26.176.182. Virtual Airline. CMS by phpVMS.Website designed by Zumeweb and edited by Theo Bearman.
There is 0 User(s) Online: | and 3 Guest(s) Online.
All information on this site is for fight simulation purposes only. This site is for flight logging for pilots of Virtual Airline&模擬飛行論壇 FlySim only.